CDT,Max TemperatureF,Mean TemperatureF,Min TemperatureF,Max Dew PointF,MeanDew PointF,Min DewpointF,Max Humidity, Mean Humidity, Min Humidity, Max Sea Level PressureIn, Mean Sea Level PressureIn, Min Sea Level PressureIn, Max VisibilityMiles, Mean VisibilityMiles, Min VisibilityMiles, Max Wind SpeedMPH, Mean Wind SpeedMPH, Max Gust SpeedMPH,PrecipitationIn, CloudCover, Events, WindDirDegrees
2012-10-1,61,58,55,54,48,44,86,69,55,29.86,29.79,29.73,10,10,5,12,6,16,0.02,4,Rain,24
2012-10-2,61,57,53,55,50,46,94,77,62,29.90,29.81,29.74,10,9,4,14,7,18,0.01,7,Rain,342
2012-10-3,78,67,57,56,51,41,89,65,28,30.10,30.00,29.90,10,10,5,18,5,25,0.24,5,Rain-Thunderstorm,194
2012-10-4,81,70,57,56,53,46,90,62,32,30.18,30.14,30.10,10,10,7,16,7,22,0.24,1,,195
2012-10-5,55,49,41,47,43,37,90,79,66,30.21,30.17,30.11,10,9,1,13,8,23,0.81,6,Rain-Thunderstorm,353
2012-10-6,53,45,37,37,32,26,89,64,36,30.24,30.21,30.18,10,10,10,12,6,18,0.02,3,,319
2012-10-7,53,46,38,36,31,23,91,60,33,30.26,30.22,30.18,10,10,10,12,5,18,0.00,3,,310
2012-10-8,60,46,34,36,32,26,93,60,28,30.24,30.17,30.10,10,10,7,10,3,,0.00,0,,187
2012-10-9,65,54,43,41,38,35,75,55,34,30.12,30.04,29.95,10,10,10,15,7,21,0.00,1,,186
2012-10-10,57,48,39,42,31,19,86,54,26,30.27,30.18,29.96,10,10,7,21,10,28,0.00,2,,314
2012-10-11,64,50,35,44,32,26,87,53,27,30.27,30.22,30.16,10,10,10,14,4,17,0.00,1,,176
2012-10-12,66,58,49,46,43,41,87,61,43,30.37,30.28,30.20,10,10,10,13,4,20,0.00,2,Rain,68
2012-10-13,77,64,51,62,56,44,94,75,54,30.25,30.07,29.85,10,7,1,28,6,33,0.00,4,,170
2012-10-14,75,65,54,64,56,46,90,69,43,29.94,29.79,29.68,10,9,3,32,16,45,0.16,6,Rain,224
2012-10-15,66,57,48,48,43,36,93,63,33,30.02,29.97,29.92,10,10,2,10,5,16,0.00,0,,285
2012-10-16,78,62,46,49,44,40,83,52,29,29.98,29.82,29.68,10,10,5,16,7,24,0.00,0,,158
2012-10-17,72,64,56,61,51,45,90,63,47,29.70,29.58,29.36,10,10,2,29,13,36,1.01,5,Rain-Thunderstorm,191
2012-10-18,61,56,50,50,36,25,85,51,26,29.64,29.60,29.56,10,10,10,25,12,39,0.00,2,Rain,233
2012-10-19,53,50,48,46,40,36,87,67,53,29.79,29.65,29.55,10,10,4,21,13,26,0.00,8,Rain,252
2012-10-20,59,53,47,45,43,41,84,70,51,29.96,29.88,29.78,10,10,7,10,6,,0.00,5,,237
2012-10-21,77,62,48,59,48,43,82,61,38,30.00,29.97,29.93,10,10,10,10,6,16,0.00,2,,148
2012-10-22,78,71,64,61,52,45,69,51,40,30.01,29.98,29.96,10,10,5,21,9,26,0.08,3,Rain-Thunderstorm,175
2012-10-23,73,68,63,62,53,46,90,59,45,30.02,29.97,29.92,10,10,1,16,10,21,0.26,4,Rain-Thunderstorm,180
2012-10-24,80,72,63,60,56,52,68,59,48,30.03,29.98,29.94,10,10,10,16,9,20,0.00,0,,180
2012-10-25,79,62,46,59,54,42,88,63,47,30.13,29.92,29.84,10,10,3,23,11,31,0.18,3,Rain,191
2012-10-26,49,45,41,43,35,32,88,68,54,30.31,30.25,30.13,10,10,2,18,13,24,0.21,5,Rain,351
2012-10-27,51,43,35,35,31,29,78,64,48,30.28,30.23,30.19,10,10,5,18,10,25,0.00,1,,357
2012-10-28,51,44,37,34,31,30,77,65,48,30.23,30.21,30.19,10,10,10,15,8,18,0.00,2,,358
2012-10-29,54,44,34,34,29,24,81,58,32,30.28,30.21,30.07,10,10,10,18,10,25,0.00,0,,342
2012-10-30,55,47,39,26,21,13,57,39,19,30.06,29.91,29.83,10,10,5,26,13,34,0.00,0,,316
2012-10-31,52,43,34,29,23,15,68,45,25,29.96,29.92,29.88,10,10,10,16,8,24,0.00,0,,297